createdAt,value
2022-09-12T00:00:55.249Z,1003.1
2022-09-12T00:02:55.571Z,1003.1
2022-09-12T00:05:55.883Z,1003
2022-09-12T00:08:55.162Z,1003
2022-09-12T00:11:55.152Z,1002.9
2022-09-12T00:13:55.599Z,1003
2022-09-12T00:15:55.598Z,1003
2022-09-12T00:18:55.186Z,1002.9
2022-09-12T00:21:55.170Z,1003
2022-09-12T00:23:55.416Z,1002.9
2022-09-12T00:26:55.172Z,1002.9
2022-09-12T00:28:55.166Z,1002.9
2022-09-12T00:30:55.523Z,1002.9
2022-09-12T00:33:55.205Z,1002.9
2022-09-12T00:35:55.673Z,1002.9
2022-09-12T00:38:56.054Z,1002.9
2022-09-12T00:41:55.603Z,1002.9
2022-09-12T00:44:55.185Z,1002.8
2022-09-12T00:46:55.178Z,1002.8
2022-09-12T00:48:55.234Z,1002.8
2022-09-12T00:51:55.190Z,1002.8
2022-09-12T00:53:55.177Z,1002.8
2022-09-12T00:56:55.680Z,1002.7
2022-09-12T00:58:55.819Z,1002.7
2022-09-12T01:00:56.102Z,1002.7
2022-09-12T01:03:55.189Z,1002.8
2022-09-12T01:05:55.191Z,1002.7
2022-09-12T01:07:55.712Z,1002.7
2022-09-12T01:09:55.868Z,1002.8
2022-09-12T01:12:55.205Z,1002.8
2022-09-12T01:14:55.878Z,1002.7
2022-09-12T01:17:55.199Z,1002.7
2022-09-12T01:19:55.183Z,1002.7
2022-09-12T01:22:55.206Z,1002.7
2022-09-12T01:24:55.228Z,1002.6
2022-09-12T01:27:55.291Z,1002.6
2022-09-12T01:29:55.539Z,1002.6
2022-09-12T01:32:55.908Z,1002.6
2022-09-12T01:35:55.367Z,1002.6
2022-09-12T01:37:55.538Z,1002.5
2022-09-12T01:40:55.626Z,1002.5
2022-09-12T01:43:56.076Z,1002.6
2022-09-12T01:46:55.232Z,1002.5
2022-09-12T01:48:55.588Z,1002.5
2022-09-12T01:51:55.348Z,1002.5
2022-09-12T01:54:55.274Z,1002.5
2022-09-12T01:56:56.040Z,1002.4
2022-09-12T01:59:55.214Z,1002.5
2022-09-12T02:02:54.280Z,1002.4
2022-09-12T02:04:55.700Z,1002.4
2022-09-12T02:07:55.177Z,1002.4
2022-09-12T02:09:55.221Z,1002.3
2022-09-12T02:12:55.662Z,1002.3
2022-09-12T02:15:55.764Z,1002.3
2022-09-12T02:18:55.239Z,1002.3
2022-09-12T02:20:55.261Z,1002.3
2022-09-12T02:22:55.731Z,1002.3
2022-09-12T02:24:55.812Z,1002.3
2022-09-12T02:27:56.095Z,1002.3
2022-09-12T02:30:55.246Z,1002.3
2022-09-12T02:33:55.224Z,1002.3
2022-09-12T02:35:55.249Z,1002.3
2022-09-12T02:38:55.208Z,1002.3
2022-09-12T02:40:55.810Z,1002.3
2022-09-12T02:43:55.283Z,1002.3
2022-09-12T02:46:55.211Z,1002.3
2022-09-12T02:49:55.209Z,1002.3
2022-09-12T02:51:55.536Z,1002.3
2022-09-12T02:53:56.093Z,1002.3
2022-09-12T02:56:55.450Z,1002.3
2022-09-12T02:59:55.257Z,1002.3
2022-09-12T03:01:55.744Z,1002.2
2022-09-12T03:04:55.232Z,1002.2
2022-09-12T03:06:55.239Z,1002.2
2022-09-12T03:08:55.819Z,1002.2
2022-09-12T03:11:54.284Z,1002.2
2022-09-12T03:13:55.238Z,1002.2
2022-09-12T03:15:55.311Z,1002.3
2022-09-12T03:17:55.451Z,1002.2
2022-09-12T03:20:55.219Z,1002.2
2022-09-12T03:23:55.358Z,1002.2
2022-09-12T03:27:55.509Z,1002.3
2022-09-12T03:30:55.412Z,1002.2
2022-09-12T03:33:55.235Z,1002.2
2022-09-12T03:36:55.635Z,1002.2
2022-09-12T03:39:55.271Z,1002.2
2022-09-12T03:41:55.499Z,1002.2
2022-09-12T03:43:56.005Z,1002.2
2022-09-12T03:46:55.221Z,1002.2
2022-09-12T03:49:55.221Z,1002.2
2022-09-12T03:51:55.237Z,1002.2
2022-09-12T03:54:55.213Z,1002.2
2022-09-12T03:57:55.279Z,1002.1
2022-09-12T03:59:56.039Z,1002.1
2022-09-12T04:03:55.288Z,1002.1
2022-09-12T04:05:55.393Z,1002.1
2022-09-12T04:09:55.731Z,1002.1
2022-09-12T04:12:55.253Z,1002.1
2022-09-12T04:14:55.250Z,1002.1
2022-09-12T04:17:55.198Z,1002.2
2022-09-12T04:20:55.201Z,1002.1
2022-09-12T04:23:55.765Z,1002.1
2022-09-12T04:26:55.670Z,1002.1
2022-09-12T04:29:54.300Z,1002.2
2022-09-12T04:31:55.230Z,1002.2
2022-09-12T04:33:55.535Z,1002.2
2022-09-12T04:36:55.222Z,1002.2
2022-09-12T04:39:54.338Z,1002.2
2022-09-12T04:41:55.194Z,1002.2
2022-09-12T04:43:55.597Z,1002.2
2022-09-12T04:46:55.311Z,1002.2
2022-09-12T04:49:55.211Z,1002.1
2022-09-12T04:51:55.961Z,1002.2
2022-09-12T04:54:55.737Z,1002.2
2022-09-12T04:57:55.252Z,1002.1
2022-09-12T04:59:55.538Z,1002.1
2022-09-12T05:02:56.160Z,1002.2
2022-09-12T05:05:56.599Z,1002.2
2022-09-12T05:08:55.638Z,1002.2
2022-09-12T05:12:04.472Z,1002.1
2022-09-12T05:14:55.248Z,1002.1
2022-09-12T05:16:55.726Z,1002.1
2022-09-12T05:19:55.242Z,1002.1
2022-09-12T05:21:55.682Z,1002.1
2022-09-12T05:24:55.251Z,1002.1
2022-09-12T05:26:55.932Z,1002
2022-09-12T05:29:56.098Z,1002
2022-09-12T05:32:55.855Z,1002
2022-09-12T05:34:56.035Z,1002.1
2022-09-12T05:37:55.335Z,1002.1
2022-09-12T05:39:55.773Z,1002.1
2022-09-12T05:41:55.811Z,1002.1
2022-09-12T05:43:55.937Z,1002.1
2022-09-12T05:46:55.244Z,1002.1
2022-09-12T05:48:56.726Z,1002.1
2022-09-12T05:51:55.238Z,1002.2
2022-09-12T05:53:55.742Z,1002.1
2022-09-12T05:56:54.333Z,1002.2
2022-09-12T05:58:55.227Z,1002.2
2022-09-12T06:00:55.236Z,1002.1
2022-09-12T06:02:55.628Z,1002.2
2022-09-12T06:05:55.252Z,1002.2
2022-09-12T06:08:55.225Z,1002.2
2022-09-12T06:10:57.312Z,1002.2
2022-09-12T06:14:55.236Z,1002.3
2022-09-12T06:17:55.253Z,1002.3
2022-09-12T06:20:55.231Z,1002.2
2022-09-12T06:22:55.617Z,1002.2
2022-09-12T06:24:57.922Z,1002.2
2022-09-12T06:27:55.759Z,1002.2
2022-09-12T06:31:55.844Z,1002.1
2022-09-12T06:34:55.883Z,1002.1
2022-09-12T06:37:55.739Z,1002.2
2022-09-12T06:39:56.041Z,1002.2
2022-09-12T06:42:55.265Z,1002.2
2022-09-12T06:45:55.290Z,1002.2
2022-09-12T06:47:55.973Z,1002.2
2022-09-12T06:50:55.290Z,1002.2
2022-09-12T06:53:55.628Z,1002.2
2022-09-12T06:55:55.647Z,1002.3
2022-09-12T06:58:55.581Z,1002.3
2022-09-12T07:00:59.008Z,1002.3
2022-09-12T07:03:54.311Z,1002.3
2022-09-12T07:05:55.269Z,1002.3
2022-09-12T07:07:55.473Z,1002.3
2022-09-12T07:10:55.250Z,1002.2
2022-09-12T07:12:55.276Z,1002.3
2022-09-12T07:15:55.758Z,1002.3
2022-09-12T07:18:55.264Z,1002.3
2022-09-12T07:20:55.310Z,1002.2
2022-09-12T07:23:55.319Z,1002.2
2022-09-12T07:26:56.356Z,1002.2
2022-09-12T07:29:00.681Z,1002.2
2022-09-12T07:31:55.843Z,1002.2
2022-09-12T07:33:56.381Z,1002.1
2022-09-12T07:36:54.326Z,1002.2
2022-09-12T07:38:57.500Z,1002.1
2022-09-12T07:41:55.245Z,1002.1
2022-09-12T07:43:55.327Z,1002.1
2022-09-12T07:45:56.120Z,1002.2
2022-09-12T07:48:55.546Z,1002.2
2022-09-12T07:50:56.069Z,1002.2
2022-09-12T07:53:55.343Z,1002.2
2022-09-12T07:56:55.274Z,1002.2
2022-09-12T07:58:55.290Z,1002.2
2022-09-12T08:01:55.279Z,1002.2
2022-09-12T08:03:55.932Z,1002.2
2022-09-12T08:06:55.267Z,1002.2
2022-09-12T08:08:55.763Z,1002.2
2022-09-12T08:11:56.100Z,1002.2
2022-09-12T08:14:55.818Z,1002.2
2022-09-12T08:17:55.766Z,1002.2
2022-09-12T08:19:55.864Z,1002.2
2022-09-12T08:22:55.290Z,1002.2
2022-09-12T08:25:55.507Z,1002.2
2022-09-12T08:28:55.882Z,1002.1
2022-09-12T08:30:56.290Z,1002.1
2022-09-12T08:33:55.849Z,1002.2
2022-09-12T08:35:55.967Z,1002.2
2022-09-12T08:38:58.705Z,1002.1
2022-09-12T08:40:55.282Z,1002.1
2022-09-12T08:43:56.647Z,1002
2022-09-12T08:45:56.114Z,1002
2022-09-12T08:48:55.276Z,1002
2022-09-12T08:50:55.872Z,1002.1
2022-09-12T08:54:55.365Z,1002.1
2022-09-12T08:56:55.823Z,1002.1
2022-09-12T08:58:55.836Z,1002.1
2022-09-12T09:01:55.329Z,1002.1
2022-09-12T09:03:56.115Z,1002.1
2022-09-12T09:06:55.325Z,1002.1
2022-09-12T09:08:55.792Z,1002.1
2022-09-12T09:11:55.284Z,1002.2
2022-09-12T09:14:55.358Z,1002.1
2022-09-12T09:17:55.287Z,1002.1
2022-09-12T09:19:56.106Z,1002.1
2022-09-12T09:22:55.480Z,1002.1
2022-09-12T09:25:55.315Z,1002.1
2022-09-12T09:28:55.330Z,1002.1
2022-09-12T09:30:56.184Z,1002.1
2022-09-12T09:33:55.481Z,1002.1
2022-09-12T09:35:55.768Z,1002.1
2022-09-12T09:38:55.267Z,1002.1
2022-09-12T09:40:55.307Z,1002
2022-09-12T09:42:55.298Z,1002.1
2022-09-12T09:44:55.420Z,1002.1
2022-09-12T09:48:54.362Z,1002.1
2022-09-12T09:50:55.549Z,1002.1
2022-09-12T09:53:55.283Z,1002.1
2022-09-12T09:56:56.161Z,1002
2022-09-12T09:59:54.384Z,1002
2022-09-12T10:01:55.340Z,1002
2022-09-12T10:03:55.423Z,1002
2022-09-12T10:05:55.532Z,1002
2022-09-12T10:07:56.248Z,1002
2022-09-12T10:10:55.701Z,1001.9
2022-09-12T10:13:55.732Z,1001.9
2022-09-12T10:16:55.283Z,1001.9
2022-09-12T10:18:55.310Z,1001.8
2022-09-12T10:20:55.567Z,1001.8
2022-09-12T10:23:55.575Z,1001.8
2022-09-12T10:26:56.888Z,1001.7
2022-09-12T10:28:55.781Z,1001.7
2022-09-12T10:31:55.291Z,1001.7
2022-09-12T10:34:55.328Z,1001.6
2022-09-12T10:36:55.769Z,1001.6
2022-09-12T10:39:55.323Z,1001.7
2022-09-12T10:42:55.318Z,1001.6
2022-09-12T10:44:55.671Z,1001.6
2022-09-12T10:47:55.360Z,1001.6
2022-09-12T10:49:56.088Z,1001.5
2022-09-12T10:52:55.320Z,1001.5
2022-09-12T10:55:55.324Z,1001.5
2022-09-12T10:57:55.835Z,1001.4
2022-09-12T10:59:55.886Z,1001.4
2022-09-12T11:01:56.100Z,1001.4
2022-09-12T11:04:54.426Z,1001.4
2022-09-12T11:07:55.962Z,1001.3
2022-09-12T11:10:56.348Z,1001.3
2022-09-12T11:13:55.520Z,1001.3
2022-09-12T11:15:55.594Z,1001.3
2022-09-12T11:18:55.660Z,1001.3
2022-09-12T11:21:55.315Z,1001.3
2022-09-12T11:23:55.744Z,1001.3
2022-09-12T11:26:55.315Z,1001.2
2022-09-12T11:28:55.677Z,1001.2
2022-09-12T11:31:56.119Z,1001.2
2022-09-12T11:34:56.077Z,1001.1
2022-09-12T11:37:55.861Z,1001
2022-09-12T11:40:55.334Z,1001
2022-09-12T11:43:56.295Z,1001
2022-09-12T11:46:56.089Z,1001
2022-09-12T11:49:55.847Z,1001
2022-09-12T11:52:55.335Z,1001
2022-09-12T11:54:55.677Z,1000.9
2022-09-12T11:57:55.548Z,1001
2022-09-12T11:59:55.982Z,1001
2022-09-12T12:02:56.001Z,1000.9
2022-09-12T12:05:55.741Z,1000.9
2022-09-12T12:08:55.369Z,1000.8
2022-09-12T12:11:56.060Z,1000.8
2022-09-12T12:15:55.430Z,1000.8
2022-09-12T12:18:55.368Z,1000.7
2022-09-12T12:20:55.361Z,1000.7
2022-09-12T12:23:55.349Z,1000.8
2022-09-12T12:25:55.365Z,1000.7
2022-09-12T12:28:55.359Z,1000.7
2022-09-12T12:30:55.631Z,1000.6
2022-09-12T12:33:55.378Z,1000.6
2022-09-12T12:36:55.355Z,1000.6
2022-09-12T12:39:55.724Z,1000.5
2022-09-12T12:41:56.125Z,1000.5
2022-09-12T12:44:56.035Z,1000.5
2022-09-12T12:47:55.334Z,1000.5
2022-09-12T12:49:55.849Z,1000.5
2022-09-12T12:52:55.608Z,1000.5
2022-09-12T12:55:55.413Z,1000.4
2022-09-12T12:58:55.328Z,1000.4
2022-09-12T13:00:55.569Z,1000.4
2022-09-12T13:03:55.730Z,1000.3
2022-09-12T13:06:55.700Z,1000.3
2022-09-12T13:09:55.334Z,1000.3
2022-09-12T13:11:55.380Z,1000.2
2022-09-12T13:14:55.906Z,1000.2
2022-09-12T13:17:55.959Z,1000.2
2022-09-12T13:20:55.856Z,1000.1
2022-09-12T13:22:56.094Z,1000.1
2022-09-12T13:25:55.679Z,1000.1
2022-09-12T13:28:55.492Z,1000.1
2022-09-12T13:31:56.197Z,1000
2022-09-12T13:34:55.854Z,1000
2022-09-12T13:37:55.603Z,999.9
2022-09-12T13:39:55.952Z,999.9
2022-09-12T13:42:55.933Z,999.9
2022-09-12T13:49:55.930Z,999.9
2022-09-12T13:52:55.356Z,999.8
2022-09-12T13:54:55.455Z,999.8
2022-09-12T13:57:55.405Z,999.7
2022-09-12T13:59:55.453Z,999.7
2022-09-12T14:03:58.615Z,999.6
2022-09-12T14:05:55.551Z,999.6
2022-09-12T14:08:56.518Z,999.7
2022-09-12T14:11:55.380Z,999.7
2022-09-12T14:13:55.730Z,999.6
2022-09-12T14:16:55.415Z,999.6
2022-09-12T14:18:55.599Z,999.6
2022-09-12T14:21:55.433Z,999.5
2022-09-12T14:23:55.556Z,999.5
2022-09-12T14:30:56.119Z,999.5
2022-09-12T14:33:55.395Z,999.4
2022-09-12T14:35:55.656Z,999.4
2022-09-12T14:38:55.736Z,999.3
2022-09-12T14:40:55.830Z,999.4
2022-09-12T14:43:55.405Z,999.3
2022-09-12T14:46:55.456Z,999.3
2022-09-12T14:48:56.300Z,999.3
2022-09-12T14:51:55.355Z,999.3
2022-09-12T14:53:55.593Z,999.2
2022-09-12T14:55:56.213Z,999.2
2022-09-12T14:58:55.448Z,999.1
2022-09-12T15:01:55.475Z,999
2022-09-12T15:03:56.212Z,998.9
2022-09-12T15:06:55.388Z,998.9
2022-09-12T15:08:55.411Z,998.9
2022-09-12T15:10:55.404Z,998.9
2022-09-12T15:13:56.031Z,998.9
2022-09-12T15:16:56.222Z,998.9
2022-09-12T15:18:57.311Z,998.9
2022-09-12T15:21:55.425Z,998.9
2022-09-12T15:24:55.533Z,998.9
2022-09-12T15:26:55.964Z,998.9
2022-09-12T15:28:59.232Z,998.9
2022-09-12T15:31:55.739Z,998.9
2022-09-12T15:34:55.423Z,998.9
2022-09-12T15:37:55.414Z,998.9
2022-09-12T15:40:56.081Z,998.8
2022-09-12T15:42:56.307Z,998.8
2022-09-12T15:45:54.615Z,998.8
2022-09-12T15:47:55.424Z,998.8
2022-09-12T15:50:55.681Z,998.8
2022-09-12T15:53:55.813Z,998.8
2022-09-12T15:57:56.913Z,998.7
2022-09-12T16:00:55.896Z,998.7
2022-09-12T16:03:55.407Z,998.7
2022-09-12T16:05:56.183Z,998.7
2022-09-12T16:08:55.467Z,998.7
2022-09-12T16:11:55.406Z,998.7
2022-09-12T16:13:56.228Z,998.6
2022-09-12T16:15:56.393Z,998.6
2022-09-12T16:18:55.448Z,998.5
2022-09-12T16:20:55.496Z,998.5
2022-09-12T16:23:55.859Z,998.5
2022-09-12T16:27:00.509Z,998.5
2022-09-12T16:29:55.437Z,998.6
2022-09-12T16:32:55.450Z,998.5
2022-09-12T16:34:55.485Z,998.5
2022-09-12T16:37:55.723Z,998.5
2022-09-12T16:39:56.063Z,998.5
2022-09-12T16:42:55.449Z,998.5
2022-09-12T16:44:55.940Z,998.4
2022-09-12T16:47:55.421Z,998.4
2022-09-12T16:49:56.086Z,998.4
2022-09-12T16:52:55.453Z,998.4
2022-09-12T16:55:55.435Z,998.4
2022-09-12T16:57:55.402Z,998.5
2022-09-12T16:59:55.454Z,998.4
2022-09-12T17:01:55.532Z,998.5
2022-09-12T17:03:55.576Z,998.5
2022-09-12T17:06:55.421Z,998.5
2022-09-12T17:08:55.466Z,998.5
2022-09-12T17:10:55.452Z,998.5
2022-09-12T17:12:55.469Z,998.5
2022-09-12T17:15:55.493Z,998.6
2022-09-12T17:17:56.069Z,998.6
2022-09-12T17:20:55.486Z,998.5
2022-09-12T17:24:55.443Z,998.5
2022-09-12T17:26:55.452Z,998.5
2022-09-12T17:29:55.494Z,998.5
2022-09-12T17:31:55.491Z,998.5
2022-09-12T17:34:55.470Z,998.4
2022-09-12T17:36:55.846Z,998.4
2022-09-12T17:40:59.670Z,998.4
2022-09-12T17:42:59.365Z,998.4
2022-09-12T17:45:55.671Z,998.4
2022-09-12T17:48:55.977Z,998.4
2022-09-12T17:51:56.091Z,998.5
2022-09-12T17:54:56.327Z,998.6
2022-09-12T17:56:56.694Z,998.6
2022-09-12T17:59:56.967Z,998.6
2022-09-12T18:02:55.507Z,998.6
2022-09-12T18:04:55.672Z,998.6
2022-09-12T18:07:56.226Z,998.6
2022-09-12T18:10:55.487Z,998.6
2022-09-12T18:13:55.482Z,998.6
2022-09-12T18:15:55.513Z,998.6
2022-09-12T18:17:55.483Z,998.6
2022-09-12T18:19:55.500Z,998.5
2022-09-12T18:21:55.587Z,998.5
2022-09-12T18:24:56.020Z,998.5
2022-09-12T18:26:56.154Z,998.6
2022-09-12T18:30:17.472Z,998.6
2022-09-12T18:31:56.029Z,998.6
2022-09-12T18:34:55.579Z,998.7
2022-09-12T18:37:55.837Z,998.6
2022-09-12T18:40:55.603Z,998.5
2022-09-12T18:43:56.352Z,998.6
2022-09-12T18:45:56.606Z,998.6
2022-09-12T18:48:55.523Z,998.6
2022-09-12T18:50:55.982Z,998.5
2022-09-12T18:52:59.575Z,998.6
2022-09-12T18:55:55.981Z,998.7
2022-09-12T18:58:57.703Z,998.7
2022-09-12T19:01:55.581Z,998.7
2022-09-12T19:03:55.714Z,998.6
2022-09-12T19:06:56.139Z,998.6
2022-09-12T19:08:56.237Z,998.6
2022-09-12T19:11:55.784Z,998.6
2022-09-12T19:14:55.536Z,998.6
2022-09-12T19:16:55.552Z,998.7
2022-09-12T19:19:55.525Z,998.7
2022-09-12T19:22:55.585Z,998.7
2022-09-12T19:25:55.523Z,998.6
2022-09-12T19:27:55.544Z,998.6
2022-09-12T19:31:55.491Z,998.4
2022-09-12T19:33:55.868Z,998.5
2022-09-12T19:36:55.727Z,998.5
2022-09-12T19:39:55.518Z,998.5
2022-09-12T19:41:56.156Z,998.5
2022-09-12T19:44:55.517Z,998.5
2022-09-12T19:46:55.542Z,998.4
2022-09-12T19:48:55.721Z,998.4
2022-09-12T19:50:56.141Z,998.3
2022-09-12T19:53:55.519Z,998.3
2022-09-12T19:55:55.850Z,998.3
2022-09-12T19:57:56.153Z,998.2
2022-09-12T20:00:55.909Z,998.2
2022-09-12T20:03:55.537Z,998.3
2022-09-12T20:06:55.521Z,998.3
2022-09-12T20:08:55.584Z,998.3
2022-09-12T20:11:56.204Z,998.3
2022-09-12T20:14:55.913Z,998.3
2022-09-12T20:17:56.370Z,998.2
2022-09-12T20:20:55.539Z,998.2
2022-09-12T20:23:55.557Z,998.1
2022-09-12T20:26:55.990Z,998.1
2022-09-12T20:29:55.526Z,998.2
2022-09-12T20:31:56.202Z,998.1
2022-09-12T20:34:56.264Z,998.1
2022-09-12T20:37:56.024Z,998.1
2022-09-12T20:40:55.631Z,998.1
2022-09-12T20:43:55.512Z,998.1
2022-09-12T20:45:55.911Z,998.2
2022-09-12T20:48:55.551Z,998.2
2022-09-12T20:50:56.300Z,998.2
2022-09-12T20:53:55.482Z,998.1
2022-09-12T20:55:55.566Z,998.1
2022-09-12T20:57:56.343Z,998
2022-09-12T21:00:55.473Z,998
2022-09-12T21:02:55.551Z,998
2022-09-12T21:04:55.532Z,998
2022-09-12T21:06:56.209Z,998
2022-09-12T21:09:55.899Z,997.9
2022-09-12T21:12:55.551Z,997.9
2022-09-12T21:15:55.579Z,997.8
2022-09-12T21:17:55.528Z,997.8
2022-09-12T21:20:55.543Z,997.8
2022-09-12T21:22:56.364Z,997.7
2022-09-12T21:25:56.193Z,997.8
2022-09-12T21:28:56.010Z,997.8
2022-09-12T21:31:55.689Z,997.7
2022-09-12T21:34:55.977Z,997.7
2022-09-12T21:37:55.537Z,997.6
2022-09-12T21:39:55.564Z,997.7
2022-09-12T21:41:55.548Z,997.7
2022-09-12T21:43:56.415Z,997.8
2022-09-12T21:46:55.833Z,997.7
2022-09-12T21:48:55.855Z,997.7
2022-09-12T21:51:55.599Z,997.7
2022-09-12T21:55:55.621Z,997.7
2022-09-12T21:57:55.929Z,997.7
2022-09-12T22:00:56.675Z,997.7
2022-09-12T22:03:55.545Z,997.7
2022-09-12T22:05:55.567Z,997.7
2022-09-12T22:07:55.609Z,997.7
2022-09-12T22:10:55.685Z,997.7
2022-09-12T22:13:55.531Z,997.8
2022-09-12T22:16:55.568Z,997.8
2022-09-12T22:18:55.568Z,997.8
2022-09-12T22:20:55.607Z,997.9
2022-09-12T22:23:56.099Z,997.8
2022-09-12T22:26:55.594Z,997.8
2022-09-12T22:29:56.114Z,997.7
2022-09-12T22:32:54.651Z,997.7
2022-09-12T22:35:02.179Z,997.6
2022-09-12T22:37:56.036Z,997.6
2022-09-12T22:40:55.586Z,997.6
2022-09-12T22:43:55.567Z,997.6
2022-09-12T22:45:55.602Z,997.6
2022-09-12T22:48:55.574Z,997.6
2022-09-12T22:50:55.780Z,997.6
2022-09-12T22:53:56.039Z,997.5
2022-09-12T22:56:56.434Z,997.5
2022-09-12T22:59:55.563Z,997.5
2022-09-12T23:02:55.622Z,997.5
2022-09-12T23:04:56.270Z,997.4
2022-09-12T23:07:55.563Z,997.4
2022-09-12T23:09:56.487Z,997.4
2022-09-12T23:12:55.590Z,997.5
2022-09-12T23:15:55.615Z,997.5
2022-09-12T23:18:56.229Z,997.5
2022-09-12T23:20:56.457Z,997.5
2022-09-12T23:23:55.569Z,997.5
2022-09-12T23:25:55.865Z,997.5
2022-09-12T23:27:56.108Z,997.5
2022-09-12T23:30:55.565Z,997.5
2022-09-12T23:32:55.968Z,997.5
2022-09-12T23:34:56.316Z,997.6
2022-09-12T23:37:55.570Z,997.6
2022-09-12T23:39:55.640Z,997.6
2022-09-12T23:41:55.714Z,997.5
2022-09-12T23:44:55.719Z,997.5
2022-09-12T23:47:55.556Z,997.5
2022-09-12T23:49:55.610Z,997.5
2022-09-12T23:51:55.609Z,997.5
2022-09-12T23:54:56.213Z,997.4
2022-09-12T23:58:55.595Z,997.2
